Saint Clair, Ohio
Current Conditions -  °F | °C
As of 3:53 PM on Thursday 20 Nov 2014 (Local Time) from KHAO Reporting Station
Few Clouds Few Clouds  
Wind Chill: 24°   Ceiling: Unl
Heat Index: 32°   Visibility: 10mi
Dew Point: 15°   Wind: 10mph
Humidity: 50%   Direction: 230°SW
Pressure: 30.14"   Gusts: 20mph
Location:  39.4247°N, 84.5012°W
Report Text: KHAO 202053Z AUTO 23009G17KT 10SM FEW042 00/M09 A3014 RMK AO2 SLP215 T00001094 56003
Loading
Personal Weather Stations






























Interactive Weather Map New forecast layout! Learn more

10-Day Weather Forecast

Advertisements
Track Severe Weather on mobile